createdAt,value
2019-04-04T00:01:38.623Z,13.50
2019-04-04T00:04:06.412Z,13.38
2019-04-04T00:06:35.480Z,13.31
2019-04-04T00:09:02.689Z,13.14
2019-04-04T00:11:32.571Z,13.03
2019-04-04T00:14:01.112Z,13.15
2019-04-04T00:16:30.281Z,12.96
2019-04-04T00:18:59.064Z,13.08
2019-04-04T00:21:26.280Z,13.18
2019-04-04T00:23:56.688Z,13.05
2019-04-04T00:26:23.759Z,13.02
2019-04-04T00:28:53.185Z,13.10
2019-04-04T00:31:19.797Z,13.12
2019-04-04T00:33:48.917Z,13.10
2019-04-04T00:36:18.258Z,12.90
2019-04-04T00:38:44.854Z,12.78
2019-04-04T00:41:15.210Z,12.83
2019-04-04T00:43:43.392Z,12.71
2019-04-04T00:46:10.315Z,12.79
2019-04-04T00:48:38.974Z,12.73
2019-04-04T00:51:08.625Z,12.62
2019-04-04T00:53:36.503Z,12.51
2019-04-04T00:56:05.346Z,12.45
2019-04-04T00:58:31.940Z,12.30
2019-04-04T01:01:01.230Z,12.55
2019-04-04T01:03:30.811Z,12.46
2019-04-04T01:05:58.177Z,12.37
2019-04-04T01:08:28.215Z,12.43
2019-04-04T01:10:58.644Z,12.39
2019-04-04T01:13:27.548Z,12.36
2019-04-04T01:15:54.747Z,12.44
2019-04-04T01:18:25.436Z,12.49
2019-04-04T01:20:55.728Z,12.46
2019-04-04T01:23:22.371Z,12.56
2019-04-04T01:25:53.969Z,12.51
2019-04-04T01:28:23.296Z,12.31
2019-04-04T01:30:51.326Z,12.16
2019-04-04T01:33:19.696Z,12.29
2019-04-04T01:35:53.788Z,12.30
2019-04-04T01:38:23.737Z,12.12
2019-04-04T01:40:54.886Z,12.12
2019-04-04T01:43:24.276Z,11.99
2019-04-04T01:45:53.291Z,11.98
2019-04-04T01:48:21.491Z,11.89
2019-04-04T01:50:53.401Z,11.89
2019-04-04T01:53:21.856Z,11.96
2019-04-04T01:55:53.988Z,11.95
2019-04-04T01:58:22.847Z,11.90
2019-04-04T02:00:52.710Z,11.85
2019-04-04T02:03:22.410Z,11.84
2019-04-04T02:05:49.640Z,11.79
2019-04-04T02:08:17.747Z,11.75
2019-04-04T02:10:44.332Z,11.83
2019-04-04T02:13:11.286Z,11.80
2019-04-04T02:15:37.866Z,12.02
2019-04-04T02:18:07.254Z,12.00
2019-04-04T02:20:35.054Z,11.87
2019-04-04T02:23:05.446Z,11.71
2019-04-04T02:25:35.682Z,11.49
2019-04-04T02:28:04.324Z,11.70
2019-04-04T02:30:30.931Z,11.62
2019-04-04T02:33:00.473Z,11.43
2019-04-04T02:35:28.323Z,11.36
2019-04-04T02:37:56.201Z,11.32
2019-04-04T02:40:25.641Z,11.35
2019-04-04T02:42:55.230Z,11.31
2019-04-04T02:45:21.173Z,11.36
2019-04-04T02:47:51.211Z,11.19
2019-04-04T02:50:16.355Z,11.16
2019-04-04T02:52:46.008Z,11.09
2019-04-04T02:55:14.352Z,10.90
2019-04-04T02:57:42.396Z,11.02
2019-04-04T03:00:11.979Z,11.15
2019-04-04T03:02:38.589Z,11.06
2019-04-04T03:05:06.214Z,11.10
2019-04-04T03:07:33.067Z,11.14
2019-04-04T03:10:03.688Z,11.29
2019-04-04T03:12:34.009Z,11.22
2019-04-04T03:15:03.844Z,11.32
2019-04-04T03:17:32.667Z,11.09
2019-04-04T03:20:00.432Z,11.16
2019-04-04T03:22:39.443Z,10.99
2019-04-04T03:25:14.919Z,10.85
2019-04-04T03:27:41.692Z,10.62
2019-04-04T03:30:13.238Z,10.72
2019-04-04T03:32:39.266Z,10.71
2019-04-04T03:35:07.215Z,10.75
2019-04-04T03:37:34.060Z,10.87
2019-04-04T03:40:03.233Z,10.79
2019-04-04T03:42:31.911Z,10.81
2019-04-04T03:44:58.628Z,10.75
2019-04-04T03:47:25.565Z,10.67
2019-04-04T03:49:56.931Z,10.82
2019-04-04T03:52:24.519Z,10.90
2019-04-04T03:54:56.328Z,10.78
2019-04-04T03:57:25.365Z,10.71
2019-04-04T03:59:51.897Z,10.65
2019-04-04T04:02:22.269Z,10.71
2019-04-04T04:04:48.881Z,10.82
2019-04-04T04:07:19.831Z,10.54
2019-04-04T04:09:49.778Z,10.36
2019-04-04T04:12:16.368Z,10.07
2019-04-04T04:14:43.952Z,9.90
2019-04-04T04:20:03.308Z,10.21
2019-04-04T04:22:28.636Z,10.19
2019-04-04T04:24:56.613Z,10.07
2019-04-04T04:27:24.248Z,10.20
2019-04-04T04:29:51.730Z,10.35
2019-04-04T04:32:22.745Z,10.51
2019-04-04T04:34:51.879Z,10.43
2019-04-04T04:37:22.136Z,10.37
2019-04-04T04:39:49.746Z,10.58
2019-04-04T04:42:21.125Z,10.90
2019-04-04T04:44:47.099Z,10.86
2019-04-04T04:47:14.687Z,10.70
2019-04-04T04:49:42.515Z,10.58
2019-04-04T04:52:09.774Z,10.75
2019-04-04T04:54:42.565Z,10.81
2019-04-04T04:59:59.367Z,10.86
2019-04-04T05:02:27.216Z,10.61
2019-04-04T05:04:54.003Z,10.74
2019-04-04T05:07:21.189Z,10.79
2019-04-04T05:09:48.884Z,10.96
2019-04-04T07:18:36.802Z,17.97
2019-04-04T07:21:03.771Z,18.27
2019-04-04T07:23:30.718Z,18.26
2019-04-04T07:25:57.448Z,18.18
2019-04-04T07:28:24.082Z,18.22
2019-04-04T07:30:50.940Z,18.35
2019-04-04T07:33:17.701Z,18.57
2019-04-04T07:35:44.292Z,18.76
2019-04-04T07:38:10.903Z,18.52
2019-04-04T07:40:38.363Z,18.48
2019-04-04T07:43:04.928Z,18.51
2019-04-04T07:45:31.525Z,18.86
2019-04-04T07:47:59.376Z,19.06
2019-04-04T07:50:27.066Z,18.80
2019-04-04T07:52:54.159Z,18.76
2019-04-04T07:55:21.004Z,18.93
2019-04-04T07:57:50.917Z,19.04
2019-04-04T08:00:16.247Z,18.83
2019-04-04T08:02:42.886Z,18.65
2019-04-04T08:05:12.901Z,18.89
2019-04-04T08:07:38.567Z,19.01
2019-04-04T08:10:05.454Z,19.08
2019-04-04T08:12:32.075Z,19.16
2019-04-04T08:14:58.864Z,19.25
2019-04-04T08:17:25.626Z,18.99
2019-04-04T08:19:59.561Z,18.90
2019-04-04T08:22:20.896Z,19.06
2019-04-04T08:24:47.616Z,19.14
2019-04-04T08:27:14.253Z,19.40
2019-04-04T08:29:41.155Z,19.58
2019-04-04T08:32:07.780Z,19.63
2019-04-04T08:34:36.541Z,19.88
2019-04-04T08:37:03.188Z,20.26
2019-04-04T08:39:29.933Z,20.50
2019-04-04T08:41:56.562Z,20.78
2019-04-04T08:44:23.156Z,20.63
2019-04-04T08:46:49.862Z,20.85
2019-04-04T08:49:16.671Z,21.03
2019-04-04T08:51:43.839Z,20.94
2019-04-04T08:54:10.456Z,20.86
2019-04-04T08:56:37.378Z,21.09
2019-04-04T08:59:03.966Z,21.46
2019-04-04T09:01:30.631Z,21.62
2019-04-04T09:03:57.384Z,21.37
2019-04-04T09:06:24.322Z,21.45
2019-04-04T09:08:51.268Z,21.32
2019-04-04T09:11:17.912Z,20.88
2019-04-04T09:13:44.739Z,20.96
2019-04-04T09:16:11.369Z,20.93
2019-04-04T09:18:39.201Z,21.12
2019-04-04T09:21:05.953Z,21.44
2019-04-04T09:23:32.791Z,21.51
2019-04-04T09:26:05.942Z,21.48
2019-04-04T09:28:28.952Z,21.50
2019-04-04T09:30:55.926Z,21.59
2019-04-04T09:33:35.133Z,21.89
2019-04-04T09:36:01.863Z,21.90
2019-04-04T09:38:29.959Z,21.90
2019-04-04T09:40:56.821Z,22.06
2019-04-04T09:43:23.449Z,22.07
2019-04-04T09:45:50.077Z,22.00
2019-04-04T09:48:17.191Z,21.86
2019-04-04T09:50:44.100Z,21.87
2019-04-04T09:53:10.710Z,21.50
2019-04-04T09:55:37.357Z,21.51
2019-04-04T09:58:03.970Z,21.64
2019-04-04T10:00:35.564Z,22.11
2019-04-04T10:03:02.730Z,22.28
2019-04-04T10:05:29.657Z,22.21
2019-04-04T10:07:56.580Z,22.41
2019-04-04T10:10:23.370Z,22.21
2019-04-04T10:12:49.970Z,22.71
2019-04-04T10:15:17.564Z,22.88
2019-04-04T10:17:44.744Z,22.88
2019-04-04T10:20:11.335Z,23.23
2019-04-04T10:22:38.418Z,23.03
2019-04-04T10:25:05.004Z,23.09
2019-04-04T10:27:31.900Z,23.18
2019-04-04T10:29:58.807Z,23.14
2019-04-04T10:32:25.612Z,23.00
2019-04-04T10:34:52.275Z,23.16
2019-04-04T10:37:19.035Z,23.40
2019-04-04T10:39:47.706Z,23.72
2019-04-04T10:42:14.297Z,24.37
2019-04-04T10:44:45.121Z,25.05
2019-04-04T10:47:12.608Z,25.55
2019-04-04T10:49:39.437Z,25.48
2019-04-04T10:52:06.357Z,24.99
2019-04-04T10:54:33.577Z,25.17
2019-04-04T10:57:00.450Z,24.99
2019-04-04T10:59:28.336Z,25.25
2019-04-04T11:01:55.141Z,25.31
2019-04-04T11:04:22.102Z,24.93
2019-04-04T11:06:49.268Z,24.98
2019-04-04T11:09:16.169Z,24.83
2019-04-04T11:11:45.381Z,24.34
2019-04-04T11:14:12.294Z,24.27
2019-04-04T11:16:39.452Z,24.54
2019-04-04T11:19:06.221Z,24.71
2019-04-04T11:21:33.109Z,24.47
2019-04-04T11:24:00.526Z,24.49
2019-04-04T11:26:27.512Z,24.53
2019-04-04T11:28:57.113Z,24.43
2019-04-04T11:31:26.245Z,24.35
2019-04-04T11:33:54.228Z,24.52
2019-04-04T11:36:21.341Z,24.74
2019-04-04T11:38:51.494Z,24.34
2019-04-04T11:41:20.489Z,23.46
2019-04-04T11:43:55.489Z,23.08
2019-04-04T11:46:23.802Z,23.08
2019-04-04T11:48:53.258Z,23.00
2019-04-04T11:51:23.174Z,22.76
2019-04-04T11:53:54.222Z,22.94
2019-04-04T11:56:22.832Z,22.95
2019-04-04T11:58:51.918Z,23.16
2019-04-04T12:01:22.075Z,23.23
2019-04-04T12:03:51.315Z,23.16
2019-04-04T12:06:18.583Z,22.97
2019-04-04T12:08:45.532Z,22.87
2019-04-04T12:11:12.130Z,22.58
2019-04-04T12:13:39.252Z,22.19
2019-04-04T12:16:08.970Z,21.79
2019-04-04T12:18:39.482Z,21.98
2019-04-04T12:21:09.127Z,21.96
2019-04-04T12:23:35.868Z,21.97
2019-04-04T12:26:04.950Z,21.83
2019-04-04T12:28:35.630Z,21.43
2019-04-04T12:31:03.775Z,21.27
2019-04-04T12:33:32.901Z,21.02
2019-04-04T12:36:03.099Z,21.10
2019-04-04T12:38:29.967Z,21.34
2019-04-04T12:40:59.093Z,21.58
2019-04-04T12:43:28.710Z,21.38
2019-04-04T12:45:58.067Z,21.42
2019-04-04T12:48:25.130Z,21.48
2019-04-04T12:50:56.035Z,21.48
2019-04-04T12:53:22.728Z,21.39
2019-04-04T12:55:54.198Z,21.50
2019-04-04T12:58:21.172Z,21.51
2019-04-04T13:00:47.937Z,21.67
2019-04-04T13:03:16.579Z,21.68
2019-04-04T13:05:47.657Z,21.71
2019-04-04T13:08:16.494Z,21.75
2019-04-04T13:10:44.158Z,21.76
2019-04-04T13:13:13.121Z,22.09
2019-04-04T13:15:39.779Z,22.35
2019-04-04T13:18:07.626Z,22.67
2019-04-04T13:20:34.650Z,23.07
2019-04-04T13:23:01.594Z,22.79
2019-04-04T13:25:28.285Z,22.58
2019-04-04T13:28:04.405Z,22.58
2019-04-04T13:30:31.774Z,22.21
2019-04-04T13:33:03.548Z,22.07
2019-04-04T13:35:33.675Z,22.20
2019-04-04T13:38:04.593Z,22.46
2019-04-04T13:40:44.517Z,22.73
2019-04-04T13:43:08.301Z,22.93
2019-04-04T13:45:36.568Z,23.12
2019-04-04T13:48:04.452Z,23.82
2019-04-04T13:50:33.776Z,23.96
2019-04-04T13:53:00.611Z,23.90
2019-04-04T13:55:31.879Z,24.29
2019-04-04T13:57:58.835Z,24.56
2019-04-04T14:00:25.678Z,24.89
2019-04-04T14:02:52.808Z,25.05
2019-04-04T14:05:19.721Z,25.11
2019-04-04T14:07:46.569Z,25.12
2019-04-04T14:10:16.910Z,24.87
2019-04-04T14:12:42.485Z,24.37
2019-04-04T14:15:09.362Z,23.88
2019-04-04T14:17:36.336Z,23.55
2019-04-04T14:20:03.021Z,23.43
2019-04-04T14:22:30.172Z,23.13
2019-04-04T14:24:56.843Z,23.49
2019-04-04T14:27:26.985Z,23.72
2019-04-04T14:29:55.193Z,23.65
2019-04-04T14:32:21.339Z,23.62
2019-04-04T14:34:48.013Z,23.76
2019-04-04T14:37:14.857Z,23.46
2019-04-04T14:39:42.024Z,23.77
2019-04-04T14:42:08.997Z,24.18
2019-04-04T14:44:36.226Z,24.16
2019-04-04T14:47:03.052Z,24.11
2019-04-04T14:49:29.929Z,24.02
2019-04-04T14:51:56.794Z,23.71
2019-04-04T14:54:23.522Z,23.10
2019-04-04T14:56:50.856Z,22.98
2019-04-04T14:59:17.778Z,22.89
2019-04-04T15:01:44.630Z,22.60
2019-04-04T15:04:11.702Z,22.89
2019-04-04T15:06:38.577Z,23.01
2019-04-04T15:09:05.465Z,22.85
2019-04-04T15:11:32.351Z,22.85
2019-04-04T15:13:59.204Z,22.88
2019-04-04T15:16:25.860Z,22.95
2019-04-04T15:18:52.490Z,22.77
2019-04-04T15:21:19.438Z,22.93
2019-04-04T15:23:46.142Z,22.93
2019-04-04T15:26:12.891Z,23.01
2019-04-04T15:28:39.759Z,22.70
2019-04-04T15:31:06.587Z,22.65
2019-04-04T15:33:33.242Z,22.82
2019-04-04T15:35:59.823Z,23.16
2019-04-04T15:38:26.688Z,23.15
2019-04-04T15:40:53.347Z,23.02
2019-04-04T15:43:20.006Z,22.71
2019-04-04T15:45:46.656Z,22.62
2019-04-04T15:48:13.655Z,22.37
2019-04-04T15:50:40.284Z,21.83
2019-04-04T15:53:08.486Z,22.04
2019-04-04T15:55:35.129Z,22.10
2019-04-04T15:58:01.709Z,22.10
2019-04-04T16:00:32.738Z,22.00
2019-04-04T16:03:01.976Z,21.84
2019-04-04T16:05:33.182Z,21.74
2019-04-04T16:08:05.883Z,21.97
2019-04-04T16:10:32.673Z,22.19
2019-04-04T16:13:02.434Z,22.21
2019-04-04T16:15:31.659Z,22.51
2019-04-04T16:18:01.182Z,22.31
2019-04-04T16:20:30.721Z,22.30
2019-04-04T16:23:00.651Z,22.45
2019-04-04T16:25:29.387Z,22.58
2019-04-04T16:27:58.016Z,22.23
2019-04-04T16:30:27.221Z,22.07
2019-04-04T16:32:54.580Z,22.16
2019-04-04T16:35:23.451Z,21.75
2019-04-04T16:37:52.141Z,21.82
2019-04-04T16:40:18.749Z,21.79
2019-04-04T16:42:45.335Z,21.82
2019-04-04T16:45:12.220Z,21.93
2019-04-04T16:47:40.904Z,21.85
2019-04-04T16:50:10.853Z,21.63
2019-04-04T16:55:32.348Z,21.40
2019-04-04T16:58:00.252Z,21.54
2019-04-04T17:00:28.350Z,21.67
2019-04-04T17:02:56.589Z,21.78
2019-04-04T17:05:23.441Z,21.80
2019-04-04T17:07:50.046Z,21.62
2019-04-04T17:10:17.865Z,21.72
2019-04-04T17:12:44.578Z,21.67
2019-04-04T17:15:15.253Z,21.56
2019-04-04T17:17:43.590Z,21.48
2019-04-04T17:20:12.912Z,21.30
2019-04-04T17:22:43.457Z,21.32
2019-04-04T17:25:11.145Z,21.23
2019-04-04T17:27:37.756Z,21.35
2019-04-04T17:30:05.031Z,21.43
2019-04-04T17:32:33.126Z,21.34
2019-04-04T17:35:02.847Z,21.26
2019-04-04T17:37:32.019Z,21.11
2019-04-04T17:39:58.727Z,21.02
2019-04-04T17:42:32.095Z,20.88
2019-04-04T17:45:02.626Z,20.82
2019-04-04T17:47:29.637Z,20.70
2019-04-04T17:49:56.326Z,20.59
2019-04-04T17:52:22.924Z,20.74
2019-04-04T17:54:50.022Z,20.87
2019-04-04T17:57:16.909Z,20.90
2019-04-04T17:59:43.498Z,20.94
2019-04-04T18:02:12.534Z,20.99
2019-04-04T18:04:48.343Z,21.06
2019-04-04T18:07:08.138Z,20.98
2019-04-04T18:09:34.793Z,20.87
2019-04-04T18:14:33.039Z,20.90
2019-04-04T18:16:59.902Z,20.82
2019-04-04T18:19:26.779Z,20.54
2019-04-04T18:21:53.370Z,20.61
2019-04-04T18:24:20.228Z,20.80
2019-04-04T18:26:47.221Z,21.06
2019-04-04T18:29:14.172Z,21.06
2019-04-04T18:31:41.150Z,21.13
2019-04-04T18:34:08.837Z,21.13
2019-04-04T18:36:35.973Z,21.03
2019-04-04T18:39:02.720Z,21.16
2019-04-04T18:41:29.580Z,21.07
2019-04-04T18:43:56.367Z,21.10
2019-04-04T18:46:23.089Z,21.19
2019-04-04T18:48:49.875Z,21.09
2019-04-04T18:51:16.459Z,20.98
2019-04-04T18:53:43.406Z,20.87
2019-04-04T18:56:10.114Z,20.80
2019-04-04T18:58:36.703Z,20.70
2019-04-04T19:01:03.383Z,20.67
2019-04-04T19:03:30.043Z,20.65
2019-04-04T19:05:56.625Z,20.79
2019-04-04T19:08:23.802Z,20.95
2019-04-04T19:10:50.660Z,20.99
2019-04-04T19:13:21.974Z,20.98
2019-04-04T19:15:49.279Z,21.03
2019-04-04T19:18:15.920Z,20.97
2019-04-04T19:20:42.609Z,21.05
2019-04-04T19:23:09.217Z,21.00
2019-04-04T19:25:35.827Z,20.96
2019-04-04T19:28:02.449Z,20.85
2019-04-04T19:30:29.332Z,20.98
2019-04-04T19:32:56.051Z,20.88
2019-04-04T19:35:22.984Z,20.68
2019-04-04T19:38:00.066Z,20.56
2019-04-04T19:40:18.968Z,20.56
2019-04-04T19:42:49.727Z,20.63
2019-04-04T19:45:16.930Z,20.51
2019-04-04T19:47:43.600Z,20.28
2019-04-04T19:50:10.378Z,20.35
2019-04-04T19:52:37.076Z,20.40
2019-04-04T19:55:03.670Z,20.34
2019-04-04T19:57:30.515Z,20.16
2019-04-04T19:59:57.260Z,19.95
2019-04-04T20:02:24.133Z,19.95
2019-04-04T20:07:34.794Z,19.51
2019-04-04T20:10:01.394Z,19.64
2019-04-04T20:12:28.024Z,19.74
2019-04-04T20:14:54.745Z,19.82
2019-04-04T20:17:21.347Z,19.73
2019-04-04T20:19:47.932Z,19.83
2019-04-04T20:22:14.789Z,19.73
2019-04-04T20:24:41.684Z,19.36
2019-04-04T20:27:08.338Z,19.17
2019-04-04T20:29:35.182Z,19.14
2019-04-04T20:32:01.763Z,19.12
2019-04-04T20:34:28.671Z,18.97
2019-04-04T20:36:55.608Z,18.77
2019-04-04T20:39:22.189Z,18.51
2019-04-04T20:41:48.807Z,18.53
2019-04-04T20:44:15.385Z,18.52
2019-04-04T20:46:42.171Z,18.45
2019-04-04T20:49:09.230Z,18.42
2019-04-04T20:51:36.141Z,18.24
2019-04-04T20:54:02.806Z,18.22
2019-04-04T20:56:29.737Z,18.12
2019-04-04T20:58:56.371Z,18.00
2019-04-04T21:01:23.049Z,17.95
2019-04-04T21:03:49.647Z,17.82
2019-04-04T21:06:16.253Z,17.76
2019-04-04T21:08:43.041Z,17.76
2019-04-04T21:11:09.809Z,17.73
2019-04-04T21:13:36.690Z,17.67
2019-04-04T21:16:03.407Z,17.63
2019-04-04T21:18:29.992Z,17.64
2019-04-04T21:20:56.681Z,17.51
2019-04-04T21:23:24.575Z,17.39
2019-04-04T21:25:51.185Z,17.42
2019-04-04T21:28:17.802Z,17.41
2019-04-04T21:30:44.665Z,17.28
2019-04-04T21:33:12.327Z,17.27
2019-04-04T21:35:39.386Z,17.31
2019-04-04T21:38:09.650Z,17.35
2019-04-04T21:40:40.865Z,17.48
2019-04-04T21:43:09.625Z,17.56
2019-04-04T21:45:39.272Z,17.39
2019-04-04T21:48:07.491Z,17.18
2019-04-04T21:50:38.164Z,16.77
2019-04-04T21:53:06.237Z,16.69
2019-04-04T21:55:32.826Z,16.91
2019-04-04T21:57:59.565Z,17.06
2019-04-04T22:00:28.978Z,16.91
2019-04-04T22:02:59.177Z,16.83
2019-04-04T22:05:28.050Z,16.83
2019-04-04T22:07:57.984Z,16.95
2019-04-04T22:10:28.727Z,16.98
2019-04-04T22:13:02.885Z,16.78
2019-04-04T22:15:26.874Z,16.67
2019-04-04T22:17:55.956Z,16.65
2019-04-04T22:20:25.033Z,16.58
2019-04-04T22:25:53.184Z,16.59
2019-04-04T22:28:23.508Z,16.33
2019-04-04T22:30:51.425Z,16.30
2019-04-04T22:33:20.095Z,16.36
2019-04-04T22:35:50.756Z,16.23
2019-04-04T22:38:17.894Z,16.21
2019-04-04T22:40:45.384Z,16.00
2019-04-04T22:43:14.574Z,15.87
2019-04-04T22:45:44.000Z,15.61
2019-04-04T22:48:12.347Z,15.46
2019-04-04T22:50:40.541Z,15.50
2019-04-04T22:53:08.402Z,15.61
2019-04-04T22:55:37.092Z,15.69
2019-04-04T22:58:05.821Z,15.68
2019-04-04T23:00:33.953Z,15.73
2019-04-04T23:03:00.578Z,15.70
2019-04-04T23:05:27.348Z,15.73
2019-04-04T23:07:56.480Z,15.60
2019-04-04T23:10:25.513Z,15.60
2019-04-04T23:12:54.688Z,15.58
2019-04-04T23:15:21.267Z,15.54
2019-04-04T23:17:50.101Z,15.67
2019-04-04T23:20:17.023Z,15.69
2019-04-04T23:22:53.026Z,15.69
2019-04-04T23:25:12.040Z,15.60
2019-04-04T23:27:38.642Z,15.39
2019-04-04T23:30:05.776Z,15.03
2019-04-04T23:32:32.673Z,14.71
2019-04-04T23:34:59.262Z,14.68
2019-04-04T23:37:25.910Z,14.66
2019-04-04T23:39:52.533Z,14.68
2019-04-04T23:42:19.140Z,14.86
2019-04-04T23:44:59.944Z,15.11
2019-04-04T23:47:15.860Z,15.23
2019-04-04T23:49:42.500Z,15.31
2019-04-04T23:52:09.386Z,15.13
2019-04-04T23:54:36.143Z,15.21
2019-04-04T23:57:02.764Z,15.46
2019-04-04T23:59:29.390Z,15.59
